sensor_id;sensor_type;location;lat;lon;timestamp;pressure;altitude;pressure_sealevel;temperature;humidity
7962;BME280;4026;43.652;24.906;2023-08-17T00:00:43;99235.72;;;22.43;96.50
7962;BME280;4026;43.652;24.906;2023-08-17T00:03:10;99235.13;;;22.41;96.86
7962;BME280;4026;43.652;24.906;2023-08-17T00:05:37;99237.72;;;22.41;96.49
7962;BME280;4026;43.652;24.906;2023-08-17T00:08:04;99236.09;;;22.40;96.93
7962;BME280;4026;43.652;24.906;2023-08-17T00:10:31;99228.47;;;22.38;96.97
7962;BME280;4026;43.652;24.906;2023-08-17T00:12:58;99241.69;;;22.36;96.92
7962;BME280;4026;43.652;24.906;2023-08-17T00:15:25;99236.09;;;22.40;96.39
7962;BME280;4026;43.652;24.906;2023-08-17T00:17:53;99242.03;;;22.33;97.31
7962;BME280;4026;43.652;24.906;2023-08-17T00:20:20;99239.63;;;22.32;97.05
7962;BME280;4026;43.652;24.906;2023-08-17T00:22:47;99231.19;;;22.30;97.25
7962;BME280;4026;43.652;24.906;2023-08-17T00:25:14;99235.97;;;22.26;97.70
7962;BME280;4026;43.652;24.906;2023-08-17T00:27:41;99238.72;;;22.25;97.62
7962;BME280;4026;43.652;24.906;2023-08-17T00:30:08;99238.94;;;22.23;97.92
7962;BME280;4026;43.652;24.906;2023-08-17T00:32:35;99238.31;;;22.21;97.98
7962;BME280;4026;43.652;24.906;2023-08-17T00:35:04;99236.06;;;22.18;98.20
7962;BME280;4026;43.652;24.906;2023-08-17T00:37:31;99238.66;;;22.18;98.70
7962;BME280;4026;43.652;24.906;2023-08-17T00:39:58;99238.66;;;22.18;98.77
7962;BME280;4026;43.652;24.906;2023-08-17T00:42:25;99233.78;;;22.15;99.40
7962;BME280;4026;43.652;24.906;2023-08-17T00:44:52;99240.00;;;22.14;99.28
7962;BME280;4026;43.652;24.906;2023-08-17T00:47:18;99241.59;;;22.15;99.36
7962;BME280;4026;43.652;24.906;2023-08-17T00:49:45;99237.41;;;22.14;99.44
7962;BME280;4026;43.652;24.906;2023-08-17T00:52:14;99238.72;;;22.10;99.92
7962;BME280;4026;43.652;24.906;2023-08-17T00:54:41;99242.97;;;22.11;99.44
7962;BME280;4026;43.652;24.906;2023-08-17T00:57:08;99237.28;;;22.07;99.42
7962;BME280;4026;43.652;24.906;2023-08-17T00:59:35;99238.13;;;22.08;99.94
7962;BME280;4026;43.652;24.906;2023-08-17T01:02:03;99241.69;;;22.07;100.00
7962;BME280;4026;43.652;24.906;2023-08-17T01:04:31;99245.28;;;22.06;99.67
7962;BME280;4026;43.652;24.906;2023-08-17T01:06:58;99248.25;;;22.03;100.00
7962;BME280;4026;43.652;24.906;2023-08-17T01:09:26;99246.19;;;21.98;100.00
7962;BME280;4026;43.652;24.906;2023-08-17T01:11:59;99252.41;;;21.97;100.00
7962;BME280;4026;43.652;24.906;2023-08-17T01:14:33;99248.00;;;21.98;100.00
7962;BME280;4026;43.652;24.906;2023-08-17T01:17:06;99251.31;;;21.91;100.00
7962;BME280;4026;43.652;24.906;2023-08-17T01:19:38;99253.00;;;21.84;100.00
7962;BME280;4026;43.652;24.906;2023-08-17T01:22:08;99251.47;;;21.75;100.00
7962;BME280;4026;43.652;24.906;2023-08-17T01:24:38;99252.84;;;21.71;100.00
7962;BME280;4026;43.652;24.906;2023-08-17T01:27:06;99249.59;;;21.69;100.00
7962;BME280;4026;43.652;24.906;2023-08-17T01:29:33;99249.31;;;21.64;100.00
7962;BME280;4026;43.652;24.906;2023-08-17T01:32:04;99255.88;;;21.60;100.00
7962;BME280;4026;43.652;24.906;2023-08-17T01:34:38;99251.03;;;21.57;100.00
7962;BME280;4026;43.652;24.906;2023-08-17T01:37:07;99252.72;;;21.50;100.00
7962;BME280;4026;43.652;24.906;2023-08-17T01:39:40;99245.09;;;21.48;100.00
7962;BME280;4026;43.652;24.906;2023-08-17T01:42:08;99246.78;;;21.41;100.00
7962;BME280;4026;43.652;24.906;2023-08-17T01:44:37;99253.47;;;21.35;100.00
7962;BME280;4026;43.652;24.906;2023-08-17T01:47:04;99255.44;;;21.33;100.00
7962;BME280;4026;43.652;24.906;2023-08-17T01:49:31;99249.25;;;21.34;100.00
7962;BME280;4026;43.652;24.906;2023-08-17T01:51:58;99247.34;;;21.28;100.00
7962;BME280;4026;43.652;24.906;2023-08-17T01:54:26;99254.50;;;21.26;100.00
7962;BME280;4026;43.652;24.906;2023-08-17T01:56:54;99247.00;;;21.31;100.00
7962;BME280;4026;43.652;24.906;2023-08-17T01:59:21;99249.72;;;21.38;100.00
7962;BME280;4026;43.652;24.906;2023-08-17T02:01:48;99242.75;;;21.38;100.00
7962;BME280;4026;43.652;24.906;2023-08-17T02:04:16;99247.63;;;21.33;100.00
7962;BME280;4026;43.652;24.906;2023-08-17T02:06:42;99246.19;;;21.31;100.00
7962;BME280;4026;43.652;24.906;2023-08-17T02:09:09;99237.31;;;21.25;100.00
7962;BME280;4026;43.652;24.906;2023-08-17T02:11:36;99242.84;;;21.22;100.00
7962;BME280;4026;43.652;24.906;2023-08-17T02:14:04;99241.88;;;21.23;100.00
7962;BME280;4026;43.652;24.906;2023-08-17T02:16:31;99233.09;;;21.24;100.00
7962;BME280;4026;43.652;24.906;2023-08-17T02:18:58;99236.50;;;21.24;100.00
7962;BME280;4026;43.652;24.906;2023-08-17T02:21:25;99238.09;;;21.25;100.00
7962;BME280;4026;43.652;24.906;2023-08-17T02:23:51;99236.31;;;21.26;100.00
7962;BME280;4026;43.652;24.906;2023-08-17T02:26:18;99234.91;;;21.23;100.00
7962;BME280;4026;43.652;24.906;2023-08-17T02:28:45;99233.59;;;21.19;100.00
7962;BME280;4026;43.652;24.906;2023-08-17T02:31:13;99236.41;;;21.18;100.00
7962;BME280;4026;43.652;24.906;2023-08-17T02:33:40;99236.75;;;21.15;100.00
7962;BME280;4026;43.652;24.906;2023-08-17T02:36:07;99233.16;;;21.16;100.00
7962;BME280;4026;43.652;24.906;2023-08-17T02:38:34;99239.34;;;21.15;100.00
7962;BME280;4026;43.652;24.906;2023-08-17T02:41:00;99242.13;;;21.13;100.00
7962;BME280;4026;43.652;24.906;2023-08-17T02:43:27;99236.47;;;21.10;100.00
7962;BME280;4026;43.652;24.906;2023-08-17T02:45:54;99239.06;;;21.10;100.00
7962;BME280;4026;43.652;24.906;2023-08-17T02:48:22;99230.53;;;21.01;100.00
7962;BME280;4026;43.652;24.906;2023-08-17T02:50:49;99230.69;;;20.99;100.00
7962;BME280;4026;43.652;24.906;2023-08-17T02:53:16;99232.47;;;20.99;100.00
7962;BME280;4026;43.652;24.906;2023-08-17T02:55:43;99235.28;;;20.97;100.00
7962;BME280;4026;43.652;24.906;2023-08-17T02:58:09;99229.06;;;20.98;100.00
7962;BME280;4026;43.652;24.906;2023-08-17T03:00:36;99236.88;;;20.98;100.00
7962;BME280;4026;43.652;24.906;2023-08-17T03:03:03;99233.28;;;20.99;100.00
7962;BME280;4026;43.652;24.906;2023-08-17T03:05:32;99233.28;;;20.99;100.00
7962;BME280;4026;43.652;24.906;2023-08-17T03:07:59;99241.06;;;20.99;100.00
7962;BME280;4026;43.652;24.906;2023-08-17T03:10:26;99232.47;;;20.99;100.00
7962;BME280;4026;43.652;24.906;2023-08-17T03:12:53;99236.69;;;21.00;100.00
7962;BME280;4026;43.652;24.906;2023-08-17T03:15:20;99235.94;;;20.91;100.00
7962;BME280;4026;43.652;24.906;2023-08-17T03:17:46;99242.94;;;20.91;100.00
7962;BME280;4026;43.652;24.906;2023-08-17T03:20:13;99236.94;;;20.90;100.00
7962;BME280;4026;43.652;24.906;2023-08-17T03:22:41;99231.09;;;20.88;100.00
7962;BME280;4026;43.652;24.906;2023-08-17T03:25:08;99230.63;;;20.85;100.00
7962;BME280;4026;43.652;24.906;2023-08-17T03:27:36;99237.31;;;20.79;100.00
7962;BME280;4026;43.652;24.906;2023-08-17T03:30:03;99238.97;;;20.80;100.00
7962;BME280;4026;43.652;24.906;2023-08-17T03:32:30;99242.38;;;20.80;100.00
7962;BME280;4026;43.652;24.906;2023-08-17T03:34:57;99235.72;;;20.78;100.00
7962;BME280;4026;43.652;24.906;2023-08-17T03:37:24;99235.72;;;20.78;100.00
7962;BME280;4026;43.652;24.906;2023-08-17T03:39:52;99245.31;;;20.77;100.00
7962;BME280;4026;43.652;24.906;2023-08-17T03:42:19;99249.41;;;20.72;100.00
7962;BME280;4026;43.652;24.906;2023-08-17T03:44:45;99246.81;;;20.72;100.00
7962;BME280;4026;43.652;24.906;2023-08-17T03:47:12;99248.75;;;20.70;100.00
7962;BME280;4026;43.652;24.906;2023-08-17T03:49:39;99250.03;;;20.74;100.00
7962;BME280;4026;43.652;24.906;2023-08-17T03:52:06;99251.00;;;20.73;100.00
7962;BME280;4026;43.652;24.906;2023-08-17T03:54:33;99252.00;;;20.72;100.00
7962;BME280;4026;43.652;24.906;2023-08-17T03:57:01;99256.06;;;20.74;100.00
7962;BME280;4026;43.652;24.906;2023-08-17T03:59:28;99254.41;;;20.73;100.00
7962;BME280;4026;43.652;24.906;2023-08-17T04:01:55;99262.06;;;20.75;100.00
7962;BME280;4026;43.652;24.906;2023-08-17T04:04:22;99258.47;;;20.76;100.00
7962;BME280;4026;43.652;24.906;2023-08-17T04:06:49;99252.91;;;20.79;100.00
7962;BME280;4026;43.652;24.906;2023-08-17T04:09:15;99248.06;;;20.76;100.00
7962;BME280;4026;43.652;24.906;2023-08-17T04:11:42;99253.72;;;20.79;100.00
7962;BME280;4026;43.652;24.906;2023-08-17T04:14:10;99248.38;;;20.81;100.00
7962;BME280;4026;43.652;24.906;2023-08-17T04:16:37;99255.81;;;20.84;100.00
7962;BME280;4026;43.652;24.906;2023-08-17T04:19:04;99259.06;;;20.86;100.00
7962;BME280;4026;43.652;24.906;2023-08-17T04:21:31;99254.31;;;20.90;100.00
7962;BME280;4026;43.652;24.906;2023-08-17T04:23:58;99260.31;;;20.90;100.00
7962;BME280;4026;43.652;24.906;2023-08-17T04:26:25;99256.06;;;20.97;100.00
7962;BME280;4026;43.652;24.906;2023-08-17T04:28:51;99252.75;;;21.03;100.00
7962;BME280;4026;43.652;24.906;2023-08-17T04:31:20;99252.41;;;21.07;100.00
7962;BME280;4026;43.652;24.906;2023-08-17T04:33:46;99264.72;;;21.13;100.00
7962;BME280;4026;43.652;24.906;2023-08-17T04:36:13;99263.22;;;21.18;100.00
7962;BME280;4026;43.652;24.906;2023-08-17T04:38:40;99264.91;;;21.26;100.00
7962;BME280;4026;43.652;24.906;2023-08-17T04:41:07;99267.44;;;21.34;100.00
7962;BME280;4026;43.652;24.906;2023-08-17T04:43:33;99264.47;;;21.45;100.00
7962;BME280;4026;43.652;24.906;2023-08-17T04:46:00;99269.59;;;21.54;100.00
7962;BME280;4026;43.652;24.906;2023-08-17T04:48:28;99267.88;;;21.61;100.00
7962;BME280;4026;43.652;24.906;2023-08-17T04:50:55;99271.34;;;21.76;100.00
7962;BME280;4026;43.652;24.906;2023-08-17T04:53:22;99265.84;;;21.86;100.00
7962;BME280;4026;43.652;24.906;2023-08-17T04:55:49;99278.44;;;21.97;100.00
7962;BME280;4026;43.652;24.906;2023-08-17T04:58:16;99276.19;;;22.09;100.00
7962;BME280;4026;43.652;24.906;2023-08-17T05:00:42;99277.56;;;22.20;100.00
7962;BME280;4026;43.652;24.906;2023-08-17T05:03:09;99282.56;;;22.36;99.41
7962;BME280;4026;43.652;24.906;2023-08-17T05:05:37;99273.47;;;22.47;98.70
7962;BME280;4026;43.652;24.906;2023-08-17T05:08:04;99272.44;;;22.63;98.94
7962;BME280;4026;43.652;24.906;2023-08-17T05:10:31;99269.78;;;22.77;98.60
7962;BME280;4026;43.652;24.906;2023-08-17T05:12:58;99266.31;;;22.92;97.13
7962;BME280;4026;43.652;24.906;2023-08-17T05:15:25;99274.94;;;23.07;96.90
7962;BME280;4026;43.652;24.906;2023-08-17T05:17:52;99280.00;;;23.15;93.65
7962;BME280;4026;43.652;24.906;2023-08-17T05:20:18;99268.69;;;23.30;94.71
7962;BME280;4026;43.652;24.906;2023-08-17T05:22:47;99274.84;;;23.50;95.83
7962;BME280;4026;43.652;24.906;2023-08-17T05:25:14;99282.97;;;23.62;94.84
7962;BME280;4026;43.652;24.906;2023-08-17T05:27:41;99278.06;;;23.73;91.95
7962;BME280;4026;43.652;24.906;2023-08-17T05:30:08;99274.34;;;23.89;91.17
7962;BME280;4026;43.652;24.906;2023-08-17T05:32:35;99286.88;;;24.01;89.54
7962;BME280;4026;43.652;24.906;2023-08-17T05:35:02;99282.88;;;24.11;90.18
7962;BME280;4026;43.652;24.906;2023-08-17T05:37:29;99280.34;;;24.25;88.36
7962;BME280;4026;43.652;24.906;2023-08-17T05:39:57;99277.59;;;24.39;89.41
7962;BME280;4026;43.652;24.906;2023-08-17T05:42:24;99284.31;;;24.55;89.32
7962;BME280;4026;43.652;24.906;2023-08-17T05:44:51;99281.50;;;24.63;86.49
7962;BME280;4026;43.652;24.906;2023-08-17T05:47:17;99278.13;;;24.70;85.98
7962;BME280;4026;43.652;24.906;2023-08-17T05:49:44;99280.75;;;24.83;85.44
7962;BME280;4026;43.652;24.906;2023-08-17T05:52:11;99276.16;;;24.98;87.27
7962;BME280;4026;43.652;24.906;2023-08-17T05:54:38;99284.81;;;25.12;84.42
7962;BME280;4026;43.652;24.906;2023-08-17T05:57:07;99291.31;;;25.23;85.18
7962;BME280;4026;43.652;24.906;2023-08-17T05:59:34;99279.44;;;25.40;85.49
7962;BME280;4026;43.652;24.906;2023-08-17T06:02:00;99288.47;;;25.51;83.85
7962;BME280;4026;43.652;24.906;2023-08-17T06:04:27;99283.03;;;25.66;84.29
7962;BME280;4026;43.652;24.906;2023-08-17T06:06:54;99286.03;;;25.83;83.96
7962;BME280;4026;43.652;24.906;2023-08-17T06:09:21;99287.03;;;25.95;80.63
7962;BME280;4026;43.652;24.906;2023-08-17T06:11:48;99275.88;;;26.13;84.87
7962;BME280;4026;43.652;24.906;2023-08-17T06:14:16;99279.25;;;26.27;80.91
7962;BME280;4026;43.652;24.906;2023-08-17T06:16:43;99280.22;;;26.32;80.50
7962;BME280;4026;43.652;24.906;2023-08-17T06:19:10;99284.59;;;26.52;81.01
7962;BME280;4026;43.652;24.906;2023-08-17T06:21:36;99287.75;;;26.67;80.88
7962;BME280;4026;43.652;24.906;2023-08-17T06:24:04;99288.91;;;26.78;79.21
7962;BME280;4026;43.652;24.906;2023-08-17T06:26:31;99295.72;;;26.85;78.29
7962;BME280;4026;43.652;24.906;2023-08-17T06:28:57;99293.66;;;26.94;78.40
7962;BME280;4026;43.652;24.906;2023-08-17T06:31:26;99295.31;;;27.14;78.19
7962;BME280;4026;43.652;24.906;2023-08-17T06:33:53;99297.09;;;27.26;75.96
7962;BME280;4026;43.652;24.906;2023-08-17T06:36:20;99304.22;;;27.44;77.38
7962;BME280;4026;43.652;24.906;2023-08-17T06:38:46;99311.75;;;27.59;77.83
7962;BME280;4026;43.652;24.906;2023-08-17T06:41:13;99307.22;;;27.66;77.79
7962;BME280;4026;43.652;24.906;2023-08-17T06:43:40;99302.72;;;27.73;76.35
7962;BME280;4026;43.652;24.906;2023-08-17T06:46:07;99310.66;;;27.92;77.08
7962;BME280;4026;43.652;24.906;2023-08-17T06:48:35;99313.75;;;28.07;72.14
7962;BME280;4026;43.652;24.906;2023-08-17T06:51:02;99311.69;;;28.09;75.16
7962;BME280;4026;43.652;24.906;2023-08-17T06:53:30;99311.44;;;28.29;75.01
7962;BME280;4026;43.652;24.906;2023-08-17T06:55:57;99308.75;;;28.54;79.24
7962;BME280;4026;43.652;24.906;2023-08-17T06:58:23;99318.78;;;28.76;75.73
7962;BME280;4026;43.652;24.906;2023-08-17T07:00:50;99318.81;;;28.87;70.76
7962;BME280;4026;43.652;24.906;2023-08-17T07:03:17;99321.72;;;28.98;67.78
7962;BME280;4026;43.652;24.906;2023-08-17T07:05:45;99323.81;;;29.07;70.58
7962;BME280;4026;43.652;24.906;2023-08-17T07:08:12;99320.88;;;29.16;68.71
7962;BME280;4026;43.652;24.906;2023-08-17T07:10:39;99321.09;;;29.26;66.83
7962;BME280;4026;43.652;24.906;2023-08-17T07:13:06;99324.91;;;29.30;67.17
7962;BME280;4026;43.652;24.906;2023-08-17T07:15:33;99317.78;;;29.42;69.59
7962;BME280;4026;43.652;24.906;2023-08-17T07:18:00;99319.19;;;29.45;65.82
7962;BME280;4026;43.652;24.906;2023-08-17T07:20:27;99316.41;;;29.51;69.06
7962;BME280;4026;43.652;24.906;2023-08-17T07:22:55;99324.16;;;29.65;66.16
7962;BME280;4026;43.652;24.906;2023-08-17T07:25:22;99323.41;;;29.58;70.44
7962;BME280;4026;43.652;24.906;2023-08-17T07:27:49;99318.06;;;29.64;68.26
7962;BME280;4026;43.652;24.906;2023-08-17T07:30:16;99317.50;;;29.74;66.07
7962;BME280;4026;43.652;24.906;2023-08-17T07:32:43;99315.03;;;29.96;67.24
7962;BME280;4026;43.652;24.906;2023-08-17T07:35:09;99312.97;;;30.21;66.36
7962;BME280;4026;43.652;24.906;2023-08-17T07:37:36;99323.59;;;30.38;65.63
7962;BME280;4026;43.652;24.906;2023-08-17T07:40:06;99318.38;;;30.55;67.27
7962;BME280;4026;43.652;24.906;2023-08-17T07:42:33;99316.63;;;30.61;64.26
7962;BME280;4026;43.652;24.906;2023-08-17T07:45:00;99317.31;;;30.56;59.88
7962;BME280;4026;43.652;24.906;2023-08-17T07:47:28;99319.47;;;30.59;65.86
7962;BME280;4026;43.652;24.906;2023-08-17T07:49:55;99310.56;;;30.77;67.90
7962;BME280;4026;43.652;24.906;2023-08-17T07:52:23;99313.50;;;30.93;65.71
7962;BME280;4026;43.652;24.906;2023-08-17T07:54:50;99305.34;;;31.11;66.43
7962;BME280;4026;43.652;24.906;2023-08-17T07:57:18;99312.81;;;31.14;60.15
7962;BME280;4026;43.652;24.906;2023-08-17T07:59:44;99313.72;;;31.37;65.08
7962;BME280;4026;43.652;24.906;2023-08-17T08:02:11;99312.09;;;31.35;63.03
7962;BME280;4026;43.652;24.906;2023-08-17T08:04:38;99319.44;;;31.33;63.20
7962;BME280;4026;43.652;24.906;2023-08-17T08:07:05;99319.22;;;31.35;62.51
7962;BME280;4026;43.652;24.906;2023-08-17T08:09:32;99311.66;;;31.27;60.34
7962;BME280;4026;43.652;24.906;2023-08-17T08:11:59;99311.75;;;31.15;64.34
7962;BME280;4026;43.652;24.906;2023-08-17T08:14:27;99313.28;;;31.28;63.95
7962;BME280;4026;43.652;24.906;2023-08-17T08:16:54;99306.63;;;31.59;70.63
7962;BME280;4026;43.652;24.906;2023-08-17T08:19:21;99313.16;;;31.73;61.03
7962;BME280;4026;43.652;24.906;2023-08-17T08:21:48;99313.31;;;31.84;60.60
7962;BME280;4026;43.652;24.906;2023-08-17T08:24:14;99315.88;;;31.95;60.07
7962;BME280;4026;43.652;24.906;2023-08-17T08:26:41;99302.72;;;32.00;61.72
7962;BME280;4026;43.652;24.906;2023-08-17T08:29:08;99309.97;;;32.10;61.14
7962;BME280;4026;43.652;24.906;2023-08-17T08:31:36;99310.31;;;31.97;59.15
7962;BME280;4026;43.652;24.906;2023-08-17T08:34:03;99309.84;;;32.22;63.14
7962;BME280;4026;43.652;24.906;2023-08-17T08:36:30;99312.19;;;32.18;59.56
7962;BME280;4026;43.652;24.906;2023-08-17T08:38:57;99319.94;;;32.03;58.76
7962;BME280;4026;43.652;24.906;2023-08-17T08:41:25;99318.69;;;32.11;62.54
7962;BME280;4026;43.652;24.906;2023-08-17T08:43:53;99313.66;;;32.09;58.89
7962;BME280;4026;43.652;24.906;2023-08-17T08:46:20;99305.31;;;32.17;60.67
7962;BME280;4026;43.652;24.906;2023-08-17T08:48:50;99305.59;;;32.21;61.28
7962;BME280;4026;43.652;24.906;2023-08-17T08:51:23;99314.88;;;32.01;55.83
7962;BME280;4026;43.652;24.906;2023-08-17T08:54:00;99310.03;;;32.15;55.91
7962;BME280;4026;43.652;24.906;2023-08-17T08:56:31;99304.69;;;32.10;59.66
7962;BME280;4026;43.652;24.906;2023-08-17T08:59:01;99295.19;;;32.14;60.24
7962;BME280;4026;43.652;24.906;2023-08-17T09:01:29;99295.53;;;32.23;57.92
7962;BME280;4026;43.652;24.906;2023-08-17T09:03:59;99294.81;;;32.28;57.63
7962;BME280;4026;43.652;24.906;2023-08-17T09:06:27;99295.06;;;32.48;59.51
7962;BME280;4026;43.652;24.906;2023-08-17T09:08:57;99297.59;;;32.38;53.04
7962;BME280;4026;43.652;24.906;2023-08-17T09:11:24;99298.84;;;32.57;54.51
7962;BME280;4026;43.652;24.906;2023-08-17T09:13:52;99286.31;;;32.75;57.51
7962;BME280;4026;43.652;24.906;2023-08-17T09:16:20;99292.91;;;32.45;53.47
7962;BME280;4026;43.652;24.906;2023-08-17T09:18:47;99288.22;;;32.52;56.39
7962;BME280;4026;43.652;24.906;2023-08-17T09:21:21;99286.72;;;32.61;54.72
7962;BME280;4026;43.652;24.906;2023-08-17T09:23:52;99286.41;;;32.85;56.19
7962;BME280;4026;43.652;24.906;2023-08-17T09:26:19;99286.06;;;32.76;56.34
7962;BME280;4026;43.652;24.906;2023-08-17T09:28:47;99288.34;;;32.95;53.20
7962;BME280;4026;43.652;24.906;2023-08-17T09:31:14;99286.78;;;32.99;51.69
7962;BME280;4026;43.652;24.906;2023-08-17T09:33:41;99287.69;;;33.09;55.21
7962;BME280;4026;43.652;24.906;2023-08-17T09:36:10;99292.00;;;33.21;51.60
7962;BME280;4026;43.652;24.906;2023-08-17T09:38:39;99283.63;;;33.34;54.34
7962;BME280;4026;43.652;24.906;2023-08-17T09:41:06;99287.66;;;33.47;53.60
7962;BME280;4026;43.652;24.906;2023-08-17T09:43:33;99277.34;;;33.50;50.76
7962;BME280;4026;43.652;24.906;2023-08-17T09:46:00;99273.53;;;33.36;52.75
7962;BME280;4026;43.652;24.906;2023-08-17T09:48:28;99286.66;;;33.16;50.22
7962;BME280;4026;43.652;24.906;2023-08-17T09:50:56;99275.72;;;33.44;52.49
7962;BME280;4026;43.652;24.906;2023-08-17T09:53:23;99277.69;;;33.59;51.32
7962;BME280;4026;43.652;24.906;2023-08-17T09:55:53;99268.41;;;33.62;50.28
7962;BME280;4026;43.652;24.906;2023-08-17T09:58:20;99267.97;;;33.32;50.52
7962;BME280;4026;43.652;24.906;2023-08-17T10:00:48;99262.19;;;33.41;50.76
7962;BME280;4026;43.652;24.906;2023-08-17T10:03:16;99264.66;;;33.52;49.92
7962;BME280;4026;43.652;24.906;2023-08-17T10:05:46;99266.03;;;33.60;49.53
7962;BME280;4026;43.652;24.906;2023-08-17T10:08:19;99263.47;;;33.75;51.05
7962;BME280;4026;43.652;24.906;2023-08-17T10:10:47;99256.41;;;34.01;52.39
7962;BME280;4026;43.652;24.906;2023-08-17T10:13:26;99267.00;;;34.01;47.16
7962;BME280;4026;43.652;24.906;2023-08-17T10:16:02;99259.38;;;33.52;46.48
7962;BME280;4026;43.652;24.906;2023-08-17T10:18:39;99261.06;;;33.74;48.90
7962;BME280;4026;43.652;24.906;2023-08-17T10:21:13;99258.44;;;33.84;47.39
7962;BME280;4026;43.652;24.906;2023-08-17T10:23:44;99257.44;;;33.95;48.17
7962;BME280;4026;43.652;24.906;2023-08-17T10:26:12;99257.47;;;34.06;44.91
7962;BME280;4026;43.652;24.906;2023-08-17T10:28:41;99264.97;;;34.24;45.95
7962;BME280;4026;43.652;24.906;2023-08-17T10:31:09;99248.50;;;34.17;46.95
7962;BME280;4026;43.652;24.906;2023-08-17T10:33:36;99254.09;;;34.25;47.47
7962;BME280;4026;43.652;24.906;2023-08-17T10:36:04;99255.44;;;34.28;46.26
7962;BME280;4026;43.652;24.906;2023-08-17T10:38:32;99249.06;;;34.39;47.38
7962;BME280;4026;43.652;24.906;2023-08-17T10:41:09;99253.34;;;34.51;46.16
7962;BME280;4026;43.652;24.906;2023-08-17T10:43:58;99226.81;;;34.61;46.13
7962;BME280;4026;43.652;24.906;2023-08-17T10:46:35;99240.09;;;34.71;47.43
7962;BME280;4026;43.652;24.906;2023-08-17T10:49:05;99239.03;;;34.62;46.50
7962;BME280;4026;43.652;24.906;2023-08-17T10:51:32;99236.38;;;34.62;45.11
7962;BME280;4026;43.652;24.906;2023-08-17T10:54:01;99239.56;;;34.79;45.22
7962;BME280;4026;43.652;24.906;2023-08-17T10:56:29;99231.28;;;34.50;45.01
7962;BME280;4026;43.652;24.906;2023-08-17T10:59:01;99228.41;;;34.72;47.61
7962;BME280;4026;43.652;24.906;2023-08-17T11:01:32;99231.06;;;34.67;43.74
7962;BME280;4026;43.652;24.906;2023-08-17T11:04:12;99219.09;;;34.64;44.89
7962;BME280;4026;43.652;24.906;2023-08-17T11:06:42;99223.84;;;34.52;43.85
7962;BME280;4026;43.652;24.906;2023-08-17T11:09:10;99221.78;;;34.59;44.82
7962;BME280;4026;43.652;24.906;2023-08-17T11:11:37;99212.97;;;34.89;45.74
7962;BME280;4026;43.652;24.906;2023-08-17T11:14:05;99212.44;;;35.08;42.70
7962;BME280;4026;43.652;24.906;2023-08-17T11:16:32;99218.59;;;34.88;42.57
7962;BME280;4026;43.652;24.906;2023-08-17T11:19:00;99213.78;;;35.00;45.26
7962;BME280;4026;43.652;24.906;2023-08-17T11:21:27;99215.41;;;34.60;41.87
7962;BME280;4026;43.652;24.906;2023-08-17T11:23:56;99216.19;;;34.61;42.76
7962;BME280;4026;43.652;24.906;2023-08-17T11:26:24;99210.31;;;34.43;41.55
7962;BME280;4026;43.652;24.906;2023-08-17T11:28:51;99215.13;;;34.67;42.25
7962;BME280;4026;43.652;24.906;2023-08-17T11:31:20;99215.94;;;34.83;40.96
7962;BME280;4026;43.652;24.906;2023-08-17T11:33:46;99213.25;;;34.93;40.64
7962;BME280;4026;43.652;24.906;2023-08-17T11:36:13;99207.66;;;35.10;44.23
7962;BME280;4026;43.652;24.906;2023-08-17T11:38:42;99212.97;;;35.10;41.55
7962;BME280;4026;43.652;24.906;2023-08-17T11:41:10;99197.03;;;35.00;41.54
7962;BME280;4026;43.652;24.906;2023-08-17T11:43:37;99197.59;;;34.81;41.60
7962;BME280;4026;43.652;24.906;2023-08-17T11:46:04;99198.38;;;34.92;40.92
7962;BME280;4026;43.652;24.906;2023-08-17T11:48:33;99195.44;;;35.09;42.64
7962;BME280;4026;43.652;24.906;2023-08-17T11:51:00;99193.84;;;35.18;42.65
7962;BME280;4026;43.652;24.906;2023-08-17T11:53:33;99189.00;;;35.30;41.86
7962;BME280;4026;43.652;24.906;2023-08-17T11:56:00;99187.44;;;35.24;40.31
7962;BME280;4026;43.652;24.906;2023-08-17T11:58:36;99192.25;;;35.07;40.50
7962;BME280;4026;43.652;24.906;2023-08-17T12:01:09;99192.81;;;34.78;39.74
7962;BME280;4026;43.652;24.906;2023-08-17T12:03:38;99187.50;;;34.78;40.76
7962;BME280;4026;43.652;24.906;2023-08-17T12:06:05;99189.63;;;34.71;39.50
7962;BME280;4026;43.652;24.906;2023-08-17T12:08:32;99195.75;;;34.77;41.47
7962;BME280;4026;43.652;24.906;2023-08-17T12:10:59;99188.56;;;34.67;39.47
7962;BME280;4026;43.652;24.906;2023-08-17T12:13:30;99183.22;;;34.46;40.20
7962;BME280;4026;43.652;24.906;2023-08-17T12:15:56;99180.03;;;34.49;40.81
7962;BME280;4026;43.652;24.906;2023-08-17T12:18:25;99174.22;;;34.73;43.82
7962;BME280;4026;43.652;24.906;2023-08-17T12:20:54;99175.31;;;34.62;38.88
7962;BME280;4026;43.652;24.906;2023-08-17T12:23:21;99179.53;;;34.58;39.74
7962;BME280;4026;43.652;24.906;2023-08-17T12:25:52;99172.66;;;34.57;40.14
7962;BME280;4026;43.652;24.906;2023-08-17T12:28:19;99162.78;;;34.67;39.32
7962;BME280;4026;43.652;24.906;2023-08-17T12:30:46;99171.03;;;34.56;38.44
7962;BME280;4026;43.652;24.906;2023-08-17T12:33:13;99172.06;;;34.49;37.86
7962;BME280;4026;43.652;24.906;2023-08-17T12:35:40;99168.38;;;34.51;39.07
7962;BME280;4026;43.652;24.906;2023-08-17T12:38:08;99158.78;;;34.49;40.23
7962;BME280;4026;43.652;24.906;2023-08-17T12:40:35;99158.28;;;34.37;39.12
7962;BME280;4026;43.652;24.906;2023-08-17T12:43:02;99152.44;;;34.40;38.80
7962;BME280;4026;43.652;24.906;2023-08-17T12:45:29;99156.69;;;34.46;40.07
7962;BME280;4026;43.652;24.906;2023-08-17T12:47:56;99150.88;;;34.60;39.21
7962;BME280;4026;43.652;24.906;2023-08-17T12:50:23;99149.78;;;34.66;38.15
7962;BME280;4026;43.652;24.906;2023-08-17T12:52:50;99154.03;;;34.77;39.06
7962;BME280;4026;43.652;24.906;2023-08-17T12:55:18;99148.72;;;34.67;37.75
7962;BME280;4026;43.652;24.906;2023-08-17T12:57:45;99149.75;;;34.76;39.41
7962;BME280;4026;43.652;24.906;2023-08-17T13:00:12;99143.94;;;34.79;39.27
7962;BME280;4026;43.652;24.906;2023-08-17T13:02:39;99145.22;;;34.92;38.30
7962;BME280;4026;43.652;24.906;2023-08-17T13:05:06;99136.78;;;34.75;37.86
7962;BME280;4026;43.652;24.906;2023-08-17T13:07:33;99150.28;;;34.53;38.62
7962;BME280;4026;43.652;24.906;2023-08-17T13:10:00;99144.22;;;34.62;40.91